Time;durP1;ratioP1;P1;durP2;ratioP2;P2;SDS_P1;SDS_P2;PMS_P1;PMS_P2;Temp;Humidity;BMP_temperature;BMP_pressure;BME280_temperature;BME280_humidity;BME280_pressure;Samples;Min_cycle;Max_cycle;Signal;HPM_P1;HPM_P2
2022/09/06 00:01:52;;;;;;;3.50;1.67;;;;;;;-143.84;61.08;45070.00;5030107;28;20469;-68
2022/09/06 00:04:21;;;;;;;4.40;1.57;;;;;;;-143.84;61.30;45111.91;5019128;28;20469;-68
2022/09/06 00:06:48;;;;;;;2.33;1.77;;;;;;;-143.84;61.02;45094.78;5011367;28;20794;-68
2022/09/06 00:09:15;;;;;;;1.87;1.70;;;;;;;-143.84;61.08;45090.97;5010649;28;20427;-68
2022/09/06 00:11:42;;;;;;;2.10;1.77;;;;;;;-143.84;61.17;45073.81;5010914;28;20447;-68
2022/09/06 00:14:09;;;;;;;8.10;2.00;;;;;;;-143.84;60.96;45079.53;5011160;28;20439;-68
2022/09/06 00:16:39;;;;;;;7.50;1.67;;;;;;;-143.84;61.23;45089.06;5010529;28;20440;-69
2022/09/06 00:19:06;;;;;;;3.10;1.77;;;;;;;-143.84;61.23;45096.66;5010448;28;20423;-68
2022/09/06 00:21:35;;;;;;;4.33;1.63;;;;;;;-143.84;61.26;45077.63;5011093;28;20968;-68
2022/09/06 00:24:03;;;;;;;2.27;1.80;;;;;;;-143.84;61.18;45098.56;5010766;28;20971;-68
2022/09/06 00:26:30;;;;;;;3.73;1.63;;;;;;;-143.84;61.25;45096.66;5010552;28;20471;-68
2022/09/06 00:28:58;;;;;;;2.37;1.93;;;;;;;-143.84;61.15;45100.47;5010846;28;20534;-68
2022/09/06 00:31:26;;;;;;;4.40;1.77;;;;;;;-143.84;61.15;45090.97;5010764;28;20482;-68
2022/09/06 00:33:54;;;;;;;2.60;1.73;;;;;;;-143.84;61.12;45104.28;5010673;28;21068;-68
2022/09/06 00:36:22;;;;;;;3.20;1.30;;;;;;;-143.84;61.33;45138.56;5011030;28;20447;-68
2022/09/06 00:38:51;;;;;;;2.20;1.80;;;;;;;-143.84;61.09;45090.97;5011221;28;20454;-68
2022/09/06 00:41:18;;;;;;;3.50;2.10;;;;;;;-143.84;61.34;45098.56;5010696;28;20454;-68
2022/09/06 00:43:46;;;;;;;5.23;1.90;;;;;;;-143.84;61.34;45077.63;5010294;28;20438;-68
2022/09/06 00:46:17;;;;;;;4.33;1.90;;;;;;;-143.84;61.31;45085.25;5010502;28;20443;-68
2022/09/06 00:48:46;;;;;;;1.60;1.50;;;;;;;-143.84;61.25;45119.53;5010918;28;20436;-69
2022/09/06 00:51:16;;;;;;;2.17;1.60;;;;;;;-143.84;61.12;45083.34;5023434;28;20492;-68
2022/09/06 00:53:44;;;;;;;4.20;1.73;;;;;;;-143.84;61.34;45110.00;5030287;28;20434;-68
2022/09/06 00:56:14;;;;;;;4.40;1.77;;;;;;;-143.84;61.38;45092.88;5029760;28;20496;-68
2022/09/06 00:58:41;;;;;;;1.73;1.53;;;;;;;-143.84;61.49;45094.78;5029954;28;20943;-68
2022/09/06 01:01:08;;;;;;;8.10;1.60;;;;;;;-143.84;61.52;45098.56;5029741;28;20453;-73
2022/09/06 01:03:37;;;;;;;4.10;2.17;;;;;;;-143.84;61.42;45102.38;5030059;28;20423;-71
2022/09/06 01:06:19;;;;;;;2.27;1.83;;;;;;;-143.84;61.69;45092.88;5029852;28;20785;-71
2022/09/06 01:08:59;;;;;;;2.90;1.83;;;;;;;-143.84;61.44;45098.56;5029774;28;20446;-70
2022/09/06 01:11:56;;;;;;;2.30;1.63;;;;;;;-143.84;61.69;45073.81;5029590;28;20489;-71
2022/09/06 01:14:36;;;;;;;2.07;1.90;;;;;;;-143.84;61.78;45108.09;5027945;28;20461;-72
2022/09/06 01:17:14;;;;;;;3.23;1.93;;;;;;;-143.84;61.86;45087.16;5029285;28;20452;-71
2022/09/06 01:20:17;;;;;;;1.90;1.70;;;;;;;-143.84;61.97;45083.34;5029197;28;20457;-71
2022/09/06 01:23:11;;;;;;;2.80;1.60;;;;;;;-143.84;62.00;45083.34;5029003;28;20438;-71
2022/09/06 01:25:52;;;;;;;2.00;1.77;;;;;;;-143.84;62.26;45096.66;5027794;28;20493;-71
2022/09/06 01:28:35;;;;;;;1.90;1.50;;;;;;;-143.84;62.16;45085.25;5029402;28;21088;-71
2022/09/06 01:31:17;;;;;;;3.90;1.50;;;;;;;-143.84;62.15;45094.78;5029664;28;20508;-71
2022/09/06 01:33:52;;;;;;;2.20;2.00;;;;;;;-143.84;62.24;45110.00;5029127;28;20450;-71
2022/09/06 01:36:22;;;;;;;3.23;1.87;;;;;;;-143.84;62.19;45115.72;5029322;28;20977;-71
2022/09/06 01:38:49;;;;;;;4.13;2.00;;;;;;;-143.84;62.33;45098.56;5029142;28;20500;-71
2022/09/06 01:41:16;;;;;;;2.80;1.83;;;;;;;-143.84;62.43;45106.19;5029231;28;20939;-71
2022/09/06 01:43:48;;;;;;;2.10;2.00;;;;;;;-143.84;62.43;45090.97;5029247;28;20511;-71
2022/09/06 01:46:24;;;;;;;2.07;1.77;;;;;;;-143.84;62.47;45104.28;5029302;28;20434;-71
2022/09/06 01:49:03;;;;;;;2.73;1.97;;;;;;;-143.84;62.50;45087.16;5029242;28;20977;-71
2022/09/06 01:51:40;;;;;;;4.40;1.87;;;;;;;-143.84;62.47;45108.09;5028883;28;21024;-71
2022/09/06 01:54:24;;;;;;;1.83;1.73;;;;;;;-143.84;62.41;45094.78;5028945;28;20961;-71
2022/09/06 01:57:03;;;;;;;2.50;1.90;;;;;;;-143.84;62.46;45075.72;5028832;28;20490;-71
2022/09/06 01:59:43;;;;;;;4.50;1.80;;;;;;;-143.84;62.57;45085.25;5028755;28;20452;-71
2022/09/06 02:02:18;;;;;;;3.57;2.00;;;;;;;-143.84;62.61;45100.47;5028561;28;20449;-71
2022/09/06 02:04:49;;;;;;;1.87;1.70;;;;;;;-143.84;62.74;45087.16;5028542;28;20439;-71
2022/09/06 02:07:20;;;;;;;1.77;1.67;;;;;;;-143.84;62.80;45083.34;5028629;28;20453;-71
2022/09/06 02:09:53;;;;;;;3.20;1.50;;;;;;;-143.84;63.07;45098.56;5028580;28;20448;-70
2022/09/06 02:12:22;;;;;;;2.30;1.67;;;;;;;-143.84;62.76;45094.78;5028844;28;20429;-71
2022/09/06 02:14:57;;;;;;;2.40;1.90;;;;;;;-143.84;62.98;45070.00;5028963;28;20449;-71
2022/09/06 02:17:28;;;;;;;3.07;1.53;;;;;;;-143.84;63.04;45092.88;5028645;28;20456;-71
2022/09/06 02:20:01;;;;;;;2.33;1.80;;;;;;;-143.84;62.99;45077.63;5028802;28;20442;-71
2022/09/06 02:22:34;;;;;;;4.33;1.90;;;;;;;-143.84;62.88;45081.44;5028541;28;20942;-70
2022/09/06 02:25:04;;;;;;;4.40;1.90;;;;;;;-143.84;62.99;45094.78;5028310;28;20443;-70
2022/09/06 02:27:32;;;;;;;2.87;2.50;;;;;;;-143.84;62.97;45094.78;5028899;28;20431;-73
2022/09/06 02:30:01;;;;;;;3.77;1.60;;;;;;;-143.84;63.18;45102.38;5028854;28;20438;-74
2022/09/06 02:32:32;;;;;;;4.63;1.70;;;;;;;-143.84;62.95;45075.72;5030175;28;20439;-74
2022/09/06 02:35:01;;;;;;;4.00;1.87;;;;;;;-143.84;63.23;45119.53;5032784;28;20487;-73
2022/09/06 02:37:28;;;;;;;3.00;1.30;;;;;;;-143.84;63.05;45092.88;5033149;28;20450;-74
2022/09/06 02:39:56;;;;;;;2.10;1.90;;;;;;;-143.84;63.03;45079.53;5032410;28;21357;-74
2022/09/06 02:42:24;;;;;;;2.23;1.57;;;;;;;-143.84;62.94;45075.72;5033050;28;20438;-74
2022/09/06 02:44:51;;;;;;;2.07;1.70;;;;;;;-143.84;63.08;45094.78;5033038;28;20817;-74
2022/09/06 02:47:20;;;;;;;2.20;1.63;;;;;;;-143.84;63.23;45111.91;5032731;28;20442;-74
2022/09/06 02:49:48;;;;;;;3.90;2.20;;;;;;;-143.84;63.02;45068.13;5032785;28;20453;-74
2022/09/06 02:52:16;;;;;;;4.83;1.73;;;;;;;-143.84;63.00;45089.06;5032740;28;20541;-73
2022/09/06 02:54:43;;;;;;;4.37;1.80;;;;;;;-143.84;62.82;45075.72;5032851;28;20448;-73
2022/09/06 02:57:11;;;;;;;2.00;1.87;;;;;;;-143.84;62.90;45090.97;5032340;28;20444;-73
2022/09/06 02:59:38;;;;;;;2.40;2.20;;;;;;;-143.84;62.97;45094.78;5032583;28;20449;-74
2022/09/06 03:02:05;;;;;;;3.20;2.17;;;;;;;-143.84;62.86;45111.91;5032508;28;20443;-73
2022/09/06 03:04:34;;;;;;;2.27;2.00;;;;;;;-143.84;62.86;45106.19;5032296;28;20445;-73
2022/09/06 03:07:01;;;;;;;2.67;1.90;;;;;;;-143.84;62.60;45087.16;5028545;28;20457;-73
2022/09/06 03:09:28;;;;;;;4.00;2.10;;;;;;;-143.84;62.80;45085.25;5012565;28;20438;-73
2022/09/06 03:11:56;;;;;;;8.13;2.30;;;;;;;-143.84;62.96;45110.00;5012589;28;20485;-73
2022/09/06 03:14:23;;;;;;;1.77;1.40;;;;;;;-143.84;62.83;45094.78;5011810;28;20446;-73
2022/09/06 03:16:50;;;;;;;4.90;1.80;;;;;;;-143.84;62.68;45110.00;5011102;28;20955;-75
2022/09/06 03:19:18;;;;;;;2.40;1.60;;;;;;;-143.84;62.83;45094.78;5011422;28;20455;-75
2022/09/06 03:21:47;;;;;;;2.80;2.20;;;;;;;-143.84;62.54;45083.34;5012645;28;20940;-74
2022/09/06 03:24:14;;;;;;;2.23;1.97;;;;;;;-143.84;62.56;45098.56;5012860;28;20443;-74
2022/09/06 03:26:42;;;;;;;5.43;2.10;;;;;;;-143.84;62.45;45081.44;5012759;28;20446;-69
2022/09/06 03:29:10;;;;;;;8.80;2.07;;;;;;;-143.84;62.57;45083.34;5012026;28;20447;-68
2022/09/06 03:31:37;;;;;;;6.97;2.33;;;;;;;-143.84;62.66;45108.09;5014068;28;20512;-70
2022/09/06 03:34:04;;;;;;;5.90;1.90;;;;;;;-143.84;62.62;45110.00;5011784;28;20443;-68
2022/09/06 03:36:31;;;;;;;3.43;2.33;;;;;;;-143.84;62.80;45102.38;5011931;28;20450;-69
2022/09/06 03:39:00;;;;;;;3.00;1.97;;;;;;;-143.84;62.73;45094.78;5012141;28;20443;-69
2022/09/06 03:41:27;;;;;;;2.30;1.80;;;;;;;-143.84;62.71;45092.88;5011985;28;20959;-69
2022/09/06 03:43:54;;;;;;;8.07;2.00;;;;;;;-143.84;62.73;45073.81;5011023;28;20442;-68
2022/09/06 03:46:21;;;;;;;7.23;2.20;;;;;;;-143.84;62.51;45098.56;5010582;28;20504;-68
2022/09/06 03:48:49;;;;;;;2.33;1.93;;;;;;;-143.84;62.36;45113.81;5011347;28;20922;-68
2022/09/06 03:51:16;;;;;;;6.53;2.07;;;;;;;-143.84;62.28;45071.91;5011938;28;20856;-68
2022/09/06 03:53:43;;;;;;;2.03;1.60;;;;;;;-143.84;62.36;45127.13;5011770;28;20459;-69
2022/09/06 03:56:12;;;;;;;1.70;1.60;;;;;;;-143.84;62.49;45087.16;5011643;28;20513;-70
2022/09/06 03:58:39;;;;;;;1.60;1.50;;;;;;;-143.84;62.28;45104.28;5011886;28;20451;-70
2022/09/06 04:01:08;;;;;;;5.70;1.50;;;;;;;-143.84;62.24;45113.81;5010760;28;20957;-72
2022/09/06 04:03:36;;;;;;;2.23;2.10;;;;;;;-143.84;62.28;45073.81;5011882;28;20454;-74
2022/09/06 04:06:05;;;;;;;1.63;1.53;;;;;;;-143.84;62.18;45066.22;5012135;28;20470;-72
2022/09/06 04:08:33;;;;;;;5.43;1.70;;;;;;;-143.84;62.28;45090.97;5011672;28;21058;-73
2022/09/06 04:11:01;;;;;;;4.00;2.30;;;;;;;-143.84;62.13;45094.78;5026649;28;20474;-73
2022/09/06 04:13:31;;;;;;;3.17;2.17;;;;;;;-143.84;62.14;45096.66;5031245;28;20442;-73
2022/09/06 04:15:59;;;;;;;2.47;1.83;;;;;;;-143.84;61.95;45090.97;5030393;28;20433;-73
2022/09/06 04:18:27;;;;;;;2.07;1.90;;;;;;;-143.84;61.93;45094.78;5031086;28;20469;-72
2022/09/06 04:20:55;;;;;;;2.37;2.13;;;;;;;-143.84;62.04;45104.28;5031312;28;20445;-73
2022/09/06 04:23:24;;;;;;;2.80;2.07;;;;;;;-143.84;61.63;45081.44;5030708;28;20480;-73
2022/09/06 04:25:54;;;;;;;2.37;2.00;;;;;;;-143.84;61.92;45100.47;5030749;28;20939;-73
2022/09/06 04:28:22;;;;;;;8.67;1.60;;;;;;;-143.84;61.75;45102.38;5030574;28;20453;-74
2022/09/06 04:30:54;;;;;;;2.83;1.67;;;;;;;-143.84;61.92;45098.56;5030872;28;20427;-73
2022/09/06 04:33:24;;;;;;;3.50;2.00;;;;;;;-143.84;61.62;45098.56;5030960;28;20453;-73
2022/09/06 04:35:52;;;;;;;2.60;1.90;;;;;;;-143.84;61.46;45092.88;5028717;28;20439;-68
2022/09/06 04:38:20;;;;;;;7.87;1.80;;;;;;;-143.84;61.31;45073.81;5028015;28;20445;-68
2022/09/06 04:40:47;;;;;;;4.20;2.10;;;;;;;-143.84;61.01;45087.16;5030041;28;20442;-68
2022/09/06 04:43:15;;;;;;;3.87;2.90;;;;;;;-143.84;61.02;45098.56;5030529;28;20847;-68
2022/09/06 04:45:42;;;;;;;2.10;1.90;;;;;;;-143.84;60.99;45100.47;5030340;28;20457;-68
2022/09/06 04:48:11;;;;;;;3.20;2.00;;;;;;;-143.84;60.13;45085.25;5030690;28;20465;-69
2022/09/06 04:50:39;;;;;;;2.60;1.47;;;;;;;-143.84;58.53;45098.56;5030656;28;20940;-73
2022/09/06 04:53:06;;;;;;;2.50;1.90;;;;;;;-143.84;56.80;45064.31;5030282;28;20485;-73
2022/09/06 04:55:34;;;;;;;3.20;1.80;;;;;;;-143.84;55.39;45050.97;5029955;28;20542;-73
2022/09/06 04:58:02;;;;;;;2.20;2.07;;;;;;;-143.84;53.14;45045.25;5030221;28;20441;-73
2022/09/06 05:00:31;;;;;;;5.07;2.07;;;;;;;-143.84;51.29;45068.13;5030004;28;21038;-74
2022/09/06 05:02:59;;;;;;;3.97;2.00;;;;;;;-143.84;49.87;45087.16;5029996;28;20450;-74
2022/09/06 05:05:28;;;;;;;1.90;1.80;;;;;;;-143.84;48.51;45039.53;5029963;28;20518;-74
2022/09/06 05:07:56;;;;;;;1.20;1.10;;;;;;;-143.84;47.63;45043.34;5030323;28;20485;-73
2022/09/06 05:10:24;;;;;;;2.17;1.97;;;;;;;-143.84;45.61;45022.41;5029876;28;20447;-74
2022/09/06 05:12:52;;;;;;;2.60;1.87;;;;;;;-143.84;44.61;45012.88;5029272;28;20470;-74
2022/09/06 05:15:21;;;;;;;2.37;1.47;;;;;;;-143.84;42.65;45043.34;5029569;28;20457;-73
2022/09/06 05:17:48;;;;;;;2.43;1.50;;;;;;;-143.84;42.27;45049.06;5029278;28;20443;-74
2022/09/06 05:20:16;;;;;;;9.77;2.10;;;;;;;-143.84;41.48;45010.97;5029855;28;20446;-72
2022/09/06 05:22:54;;;;;;;1.77;1.60;;;;;;;-143.84;41.28;45030.03;5029049;28;20496;-70
2022/09/06 05:25:21;;;;;;;4.27;1.70;;;;;;;-143.84;40.42;45014.78;5018565;28;20442;-70
2022/09/06 05:27:49;;;;;;;2.50;1.80;;;;;;;-143.84;40.20;44999.56;5029465;28;20497;-72
2022/09/06 05:30:17;;;;;;;4.20;1.90;;;;;;;-143.84;39.66;45010.97;5028945;28;20438;-72
2022/09/06 05:32:44;;;;;;;1.73;1.63;;;;;;;-143.84;39.29;45009.09;5029670;28;20470;-68
2022/09/06 05:35:11;;;;;;;4.60;1.43;;;;;;;-143.84;38.49;44984.31;5029753;28;20447;-68
2022/09/06 05:37:38;;;;;;;4.50;1.50;;;;;;;-143.84;37.70;44991.94;5029827;28;20438;-68
2022/09/06 05:40:08;;;;;;;3.90;2.10;;;;;;;-143.84;37.93;44976.72;5029484;28;20785;-68
2022/09/06 05:42:35;;;;;;;6.57;1.90;;;;;;;-143.84;37.72;44990.03;5029937;28;20439;-68
2022/09/06 05:45:02;;;;;;;2.73;1.60;;;;;;;-143.84;37.15;44988.13;5029766;28;20435;-68
2022/09/06 05:47:33;;;;;;;4.13;1.70;;;;;;;-143.84;37.22;44993.84;5028244;28;20439;-68
2022/09/06 05:50:00;;;;;;;3.13;2.00;;;;;;;-143.84;36.76;44967.19;5023349;28;20812;-68
2022/09/06 05:52:28;;;;;;;4.23;1.80;;;;;;;-143.84;36.33;44978.63;5010144;28;20494;-67
2022/09/06 05:54:55;;;;;;;1.97;1.50;;;;;;;-143.84;36.20;44971.00;5009363;28;20526;-67
2022/09/06 05:57:24;;;;;;;2.23;1.50;;;;;;;-143.84;35.69;44980.53;5009909;28;20458;-68
2022/09/06 05:59:52;;;;;;;8.23;1.60;;;;;;;-143.84;35.45;44984.31;5009268;28;20439;-67
2022/09/06 06:02:20;;;;;;;1.40;1.30;;;;;;;-143.84;35.04;44971.00;5009467;28;20956;-68
2022/09/06 06:04:47;;;;;;;2.13;1.43;;;;;;;-143.84;35.61;44978.63;5009687;28;20884;-67
2022/09/06 06:07:14;;;;;;;3.27;1.83;;;;;;;-143.84;35.82;45009.09;5010079;28;20438;-68
2022/09/06 06:09:42;;;;;;;2.33;1.60;;;;;;;-143.84;35.50;44963.38;5009833;28;20814;-70
2022/09/06 06:12:09;;;;;;;2.47;1.80;;;;;;;-143.84;35.13;44990.03;5008878;28;20489;-70
2022/09/06 06:14:38;;;;;;;2.00;1.80;;;;;;;-143.84;34.92;44948.16;5009840;28;20432;-71
2022/09/06 06:17:05;;;;;;;2.33;1.63;;;;;;;-143.84;34.82;44957.66;5009083;28;20436;-69
2022/09/06 06:19:32;;;;;;;1.97;1.50;;;;;;;-143.84;35.08;44971.00;5009053;28;20447;-70
2022/09/06 06:22:00;;;;;;;1.33;1.23;;;;;;;-143.84;33.97;44965.28;5009041;28;20439;-70
2022/09/06 06:24:27;;;;;;;2.87;1.70;;;;;;;-143.84;34.23;44967.19;5009488;28;20485;-70
2022/09/06 06:26:54;;;;;;;4.70;1.50;;;;;;;-143.84;33.77;44978.63;5009589;28;20458;-69
2022/09/06 06:29:23;;;;;;;1.50;1.40;;;;;;;-143.84;33.91;44965.28;5009238;28;20443;-69
2022/09/06 06:31:52;;;;;;;6.80;1.53;;;;;;;-143.84;34.16;44980.53;5009823;28;20847;-68
2022/09/06 06:34:20;;;;;;;3.20;1.77;;;;;;;-143.84;32.91;44976.72;5009415;28;20447;-68
2022/09/06 06:36:48;;;;;;;2.13;1.50;;;;;;;-143.84;33.55;44948.16;5015975;28;20449;-68
2022/09/06 06:39:15;;;;;;;1.60;1.50;;;;;;;-143.84;34.07;44972.91;5029014;28;20442;-68
2022/09/06 06:41:43;;;;;;;3.90;1.60;;;;;;;-143.84;32.91;44957.66;5029253;28;20434;-69
2022/09/06 06:44:10;;;;;;;3.63;1.63;;;;;;;-143.84;34.00;44951.97;5029345;28;20836;-68
2022/09/06 06:46:38;;;;;;;4.07;1.70;;;;;;;-143.84;33.26;44936.72;5029235;28;20434;-69
2022/09/06 06:49:07;;;;;;;1.40;1.30;;;;;;;-143.84;33.90;44965.28;5028981;28;20475;-68
2022/09/06 06:51:36;;;;;;;4.30;1.57;;;;;;;-143.84;33.71;44950.06;5028910;28;20438;-69
2022/09/06 06:54:05;;;;;;;1.93;1.30;;;;;;;-143.84;33.57;44951.97;5028958;28;20496;-68
2022/09/06 06:56:33;;;;;;;2.63;1.40;;;;;;;-143.84;31.86;44927.19;5026694;28;20478;-68
2022/09/06 06:59:02;;;;;;;12.03;1.90;;;;;;;-143.84;32.63;44969.09;5028941;28;20513;-68
2022/09/06 07:01:32;;;;;;;2.33;1.27;;;;;;;-143.84;32.10;44925.31;5028993;28;20443;-68
2022/09/06 07:03:59;;;;;;;2.00;1.53;;;;;;;-143.84;31.41;44934.81;5029208;28;20422;-69
2022/09/06 07:06:28;;;;;;;1.73;1.40;;;;;;;-143.84;32.03;44948.16;5028996;28;20438;-68
2022/09/06 07:08:57;;;;;;;2.67;1.60;;;;;;;-143.84;31.57;44946.25;5028837;28;20939;-69
2022/09/06 07:11:24;;;;;;;2.40;1.60;;;;;;;-143.84;32.24;44946.25;5028957;28;20446;-68
2022/09/06 07:13:52;;;;;;;2.53;1.77;;;;;;;-143.84;31.54;44961.47;5028127;28;20489;-68
2022/09/06 07:16:21;;;;;;;1.47;1.37;;;;;;;-143.84;31.03;44955.75;5027497;28;20464;-69
2022/09/06 07:18:51;;;;;;;5.50;2.20;;;;;;;-143.84;30.24;44946.25;5028405;28;20854;-69
2022/09/06 07:21:24;;;;;;;1.83;1.60;;;;;;;-143.84;30.81;44946.25;5032528;28;20446;-69
2022/09/06 07:23:54;;;;;;;3.30;1.27;;;;;;;-143.84;30.73;44942.44;5032282;28;20874;-69
2022/09/06 07:26:22;;;;;;;2.23;1.23;;;;;;;-143.84;29.69;44948.16;5031653;28;20501;-68
2022/09/06 07:28:52;;;;;;;3.87;1.43;;;;;;;-143.84;30.37;44940.53;5032447;28;20442;-69
2022/09/06 07:31:19;;;;;;;10.07;1.80;;;;;;;-143.84;30.90;44927.19;5031949;28;20439;-69
2022/09/06 07:33:47;;;;;;;2.10;1.50;;;;;;;-143.84;32.20;44948.16;5032244;28;20528;-69
2022/09/06 07:36:14;;;;;;;1.47;1.37;;;;;;;-143.84;30.27;44955.75;5032083;28;20450;-69
2022/09/06 07:38:41;;;;;;;3.17;1.43;;;;;;;-143.84;30.15;44932.91;5031579;28;20469;-71
2022/09/06 07:41:11;;;;;;;3.57;1.43;;;;;;;-143.84;30.08;44963.38;5031318;28;20445;-71
2022/09/06 07:43:38;;;;;;;5.27;1.23;;;;;;;-143.84;30.57;44950.06;5031528;28;20435;-71
2022/09/06 07:46:07;;;;;;;2.47;1.17;;;;;;;-143.84;30.15;44942.44;5031491;28;20438;-70
2022/09/06 07:48:37;;;;;;;1.40;1.30;;;;;;;-143.84;31.01;44972.91;5030942;28;20427;-71
2022/09/06 07:51:08;;;;;;;4.47;1.77;;;;;;;-143.84;31.18;44940.53;5031343;28;20439;-71
2022/09/06 07:53:36;;;;;;;2.27;1.83;;;;;;;-143.84;31.02;44932.91;5031192;28;20466;-71
2022/09/06 07:56:06;;;;;;;10.47;1.60;;;;;;;-143.84;30.56;44957.66;5030855;28;20540;-71
2022/09/06 07:58:36;;;;;;;3.40;1.50;;;;;;;-143.84;31.05;44921.50;5031056;28;20435;-71
2022/09/06 08:01:26;;;;;;;4.33;1.47;;;;;;;-143.84;31.64;44986.22;5030729;28;20446;-71
2022/09/06 08:03:54;;;;;;;4.43;1.57;;;;;;;-143.84;31.52;44946.25;5030947;28;20449;-71
2022/09/06 08:06:22;;;;;;;1.80;1.50;;;;;;;-143.84;32.20;44942.44;5031041;28;20442;-71
2022/09/06 08:08:50;;;;;;;3.50;1.80;;;;;;;-143.84;32.20;44963.38;5030955;28;20526;-71
2022/09/06 08:11:17;;;;;;;9.43;1.80;;;;;;;-143.84;32.94;44934.81;5030877;28;20445;-71
2022/09/06 08:13:50;;;;;;;1.47;1.37;;;;;;;-143.84;33.02;44946.25;5030687;28;20474;-71
2022/09/06 08:16:18;;;;;;;3.63;1.70;;;;;;;-143.84;32.75;44961.47;5030373;28;21223;-71
2022/09/06 08:18:49;;;;;;;4.03;1.60;;;;;;;-143.84;33.41;44959.56;5030239;28;20441;-70
2022/09/06 08:21:17;;;;;;;3.77;2.23;;;;;;;-143.84;32.52;44965.28;5030437;28;20947;-71
2022/09/06 08:23:48;;;;;;;2.97;1.80;;;;;;;-143.84;32.23;44957.66;5030469;28;20441;-71
2022/09/06 08:26:16;;;;;;;3.00;2.10;;;;;;;-143.84;32.56;44955.75;5030708;28;20800;-72
2022/09/06 08:28:44;;;;;;;6.27;2.60;;;;;;;-143.84;33.27;44948.16;5030588;28;20439;-71
2022/09/06 08:31:20;;;;;;;2.10;1.70;;;;;;;-143.84;33.85;44940.53;5025446;28;20952;-73
2022/09/06 08:33:47;;;;;;;3.67;2.10;;;;;;;-143.84;32.62;44934.81;5024377;28;21075;-71
2022/09/06 08:36:15;;;;;;;4.97;2.43;;;;;;;-143.84;32.45;44950.06;5030591;28;20866;-71
2022/09/06 08:38:42;;;;;;;5.30;1.83;;;;;;;-143.84;32.29;44927.19;5030529;28;20431;-71
2022/09/06 08:41:12;;;;;;;3.40;2.40;;;;;;;-143.84;33.57;44932.91;5030585;28;21304;-71
2022/09/06 08:43:39;;;;;;;3.80;2.23;;;;;;;-143.84;32.33;44976.72;5030358;28;20454;-71
2022/09/06 08:46:08;;;;;;;4.03;1.67;;;;;;;-143.84;32.46;44932.91;5029699;28;20970;-71
2022/09/06 08:48:38;;;;;;;3.13;2.40;;;;;;;-143.84;31.96;44953.88;5018818;28;20440;-71
2022/09/06 08:51:38;;;;;;;3.63;2.00;;;;;;;-143.84;31.29;44961.47;5010626;28;20490;-70
2022/09/06 08:54:12;;;;;;;4.23;1.40;;;;;;;-143.84;31.34;44959.56;5006336;28;20642;-71
2022/09/06 08:56:56;;;;;;;4.17;2.80;;;;;;;-143.84;31.48;44938.63;5010536;28;20490;-72
2022/09/06 08:59:23;;;;;;;9.47;2.20;;;;;;;-143.84;31.97;44940.53;5018832;28;20446;-71
2022/09/06 09:01:59;;;;;;;3.57;1.90;;;;;;;-143.84;32.07;44957.66;5029834;28;20431;-72
2022/09/06 09:04:30;;;;;;;4.20;2.20;;;;;;;-143.84;32.33;44929.09;5030372;28;20438;-73
2022/09/06 09:07:02;;;;;;;1.60;1.50;;;;;;;-143.84;32.41;44963.38;5030900;28;20447;-72
2022/09/06 09:09:33;;;;;;;5.80;2.30;;;;;;;-143.84;32.26;44927.19;5031145;28;20525;-72
2022/09/06 09:12:01;;;;;;;17.23;1.97;;;;;;;-143.84;31.89;44951.97;5028674;28;20465;-73
2022/09/06 09:14:34;;;;;;;6.97;2.23;;;;;;;-143.84;32.64;44959.56;5023901;28;20475;-72
2022/09/06 09:17:05;;;;;;;2.40;2.30;;;;;;;-143.84;33.11;44967.19;5028910;28;20537;-74
2022/09/06 09:19:36;;;;;;;8.53;1.77;;;;;;;-143.84;33.29;44944.34;5028323;28;20450;-73
2022/09/06 09:22:04;;;;;;;3.73;2.90;;;;;;;-143.84;33.20;44942.44;5024193;28;20454;-72
2022/09/06 09:24:31;;;;;;;7.00;3.43;;;;;;;-143.84;33.08;44959.56;5025415;28;20446;-73
2022/09/06 09:27:05;;;;;;;3.30;2.00;;;;;;;-143.84;33.71;44957.66;5019504;28;20446;-75
2022/09/06 09:29:33;;;;;;;2.43;2.13;;;;;;;-143.84;33.03;44961.47;5021998;28;20457;-75
2022/09/06 09:32:00;;;;;;;5.20;2.90;;;;;;;-143.84;33.56;44950.06;5026805;28;20458;-74
2022/09/06 09:34:33;;;;;;;4.17;2.47;;;;;;;-143.84;32.94;44955.75;5026428;28;20536;-75
2022/09/06 09:37:22;;;;;;;4.53;2.40;;;;;;;-143.84;32.59;44950.06;5025698;28;20450;-72
2022/09/06 09:39:53;;;;;;;8.17;3.47;;;;;;;-143.84;32.62;44976.72;5016455;28;20483;-73
2022/09/06 09:42:28;;;;;;;4.80;2.90;;;;;;;-143.84;33.06;44965.28;5020828;28;20456;-71
2022/09/06 09:44:56;;;;;;;2.13;2.00;;;;;;;-143.84;33.03;44963.38;5027588;28;20478;-72
2022/09/06 09:47:27;;;;;;;4.70;2.67;;;;;;;-143.84;33.52;44915.78;5028521;28;20816;-73
2022/09/06 09:49:56;;;;;;;4.87;1.93;;;;;;;-143.84;34.43;44936.72;5028436;28;20454;-72
2022/09/06 09:52:26;;;;;;;3.67;1.70;;;;;;;-143.84;34.14;44957.66;5028407;28;20465;-72
2022/09/06 09:54:56;;;;;;;3.30;2.37;;;;;;;-143.84;33.85;44951.97;5027662;28;20477;-73
2022/09/06 09:57:24;;;;;;;2.40;1.73;;;;;;;-143.84;33.74;44950.06;5026580;28;20940;-76
2022/09/06 09:59:54;;;;;;;6.20;2.30;;;;;;;-143.84;34.38;44953.88;5017641;28;20452;-75
2022/09/06 10:02:26;;;;;;;7.07;2.77;;;;;;;-143.84;35.17;44971.00;5022953;28;20537;-73
2022/09/06 10:05:02;;;;;;;2.00;1.77;;;;;;;-143.84;34.77;44942.44;5026537;28;20960;-72
2022/09/06 10:07:32;;;;;;;5.13;2.10;;;;;;;-143.84;34.70;44946.25;5028645;28;20468;-71
2022/09/06 10:10:03;;;;;;;8.00;2.20;;;;;;;-143.84;33.74;44965.28;5028370;28;20461;-75
2022/09/06 10:12:32;;;;;;;2.53;1.90;;;;;;;-143.84;33.85;44934.81;5025193;28;20528;-76
2022/09/06 10:15:00;;;;;;;1.83;1.30;;;;;;;-143.84;34.12;44944.34;5024035;28;20531;-71
2022/09/06 10:17:32;;;;;;;3.20;2.00;;;;;;;-143.84;33.99;44959.56;5028029;28;20450;-74
2022/09/06 10:20:06;;;;;;;4.43;2.37;;;;;;;-143.84;34.05;44955.75;5028372;28;20466;-73
2022/09/06 10:22:51;;;;;;;2.57;1.37;;;;;;;-143.84;33.51;44940.53;5024711;28;20482;-71
2022/09/06 10:25:38;;;;;;;2.70;1.50;;;;;;;-143.84;33.63;44934.81;5028956;28;20439;-72
2022/09/06 10:28:27;;;;;;;4.70;1.87;;;;;;;-143.84;34.61;44923.41;5029178;28;20512;-76
2022/09/06 10:31:36;;;;;;;2.50;1.97;;;;;;;-143.84;33.00;44948.16;5028409;28;20438;-72
2022/09/06 10:34:15;;;;;;;3.37;2.27;;;;;;;-143.84;32.73;44944.34;4992596;28;20509;-72
2022/09/06 10:36:51;;;;;;;4.33;1.80;;;;;;;-143.84;33.38;44972.91;5028431;28;20427;-71
2022/09/06 10:39:34;;;;;;;2.00;1.73;;;;;;;-143.84;32.57;44940.53;5023746;28;20461;-72
2022/09/06 10:42:13;;;;;;;4.17;1.70;;;;;;;-143.84;32.99;44953.88;5019199;28;20447;-76
2022/09/06 10:44:58;;;;;;;2.30;1.80;;;;;;;-143.84;32.52;44967.19;5011174;28;20458;-76
2022/09/06 10:47:35;;;;;;;7.87;1.43;;;;;;;-143.84;33.09;44955.75;5024735;28;20434;-76
2022/09/06 10:50:05;;;;;;;6.83;3.17;;;;;;;-143.84;32.28;44961.47;5016302;28;20960;-76
2022/09/06 10:52:40;;;;;;;4.90;2.60;;;;;;;-143.84;33.09;44967.19;5022314;28;20451;-77
2022/09/06 10:55:12;;;;;;;2.07;1.93;;;;;;;-143.84;32.47;44951.97;5022198;28;21371;-76
2022/09/06 10:57:43;;;;;;;2.40;1.50;;;;;;;-143.84;31.55;44969.09;5022979;28;20455;-72
2022/09/06 11:00:13;;;;;;;4.83;2.03;;;;;;;-143.84;32.08;44969.09;5028113;28;20454;-72
2022/09/06 11:02:45;;;;;;;2.80;2.13;;;;;;;-143.84;32.29;44940.53;5031282;28;20454;-69
2022/09/06 11:05:19;;;;;;;2.90;1.63;;;;;;;-143.84;33.04;44971.00;5024156;28;20952;-71
2022/09/06 11:07:54;;;;;;;3.60;2.27;;;;;;;-143.84;32.89;44957.66;5024084;28;20636;-71
2022/09/06 11:10:26;;;;;;;1.87;1.63;;;;;;;-143.84;32.69;44969.09;5025619;28;20437;-72
2022/09/06 11:13:01;;;;;;;3.00;1.63;;;;;;;-143.84;32.27;44965.28;5029624;28;20443;-71
2022/09/06 11:15:32;;;;;;;11.47;2.27;;;;;;;-143.84;32.91;44982.41;5030438;28;20508;-72
2022/09/06 11:18:07;;;;;;;4.23;1.63;;;;;;;-143.84;32.49;44972.91;5027769;28;20951;-72
2022/09/06 11:20:39;;;;;;;6.70;1.50;;;;;;;-143.84;32.42;44959.56;5028268;28;20829;-72
2022/09/06 11:23:28;;;;;;;7.13;2.07;;;;;;;-143.84;32.61;44990.03;5028720;28;20442;-72
2022/09/06 11:26:28;;;;;;;4.07;1.87;;;;;;;-143.84;32.10;44969.09;5029850;28;20458;-72
2022/09/06 11:28:57;;;;;;;10.13;1.60;;;;;;;-143.84;32.05;44953.88;5028514;28;20461;-72
2022/09/06 11:31:27;;;;;;;1.83;1.73;;;;;;;-143.84;32.03;44957.66;5028244;28;20453;-72
2022/09/06 11:34:08;;;;;;;1.43;1.33;;;;;;;-143.84;32.40;44976.72;5029361;28;20498;-72